Shiocton, Wisconsin
Current Conditions -  °F | °C
As of 12:45 PM on Monday 20 Oct 2014 (Local Time) from KATW Reporting Station
Overcast Overcast  
Wind Chill: 52°   Ceiling: 4300
Heat Index: 52°   Visibility: 10mi
Dew Point: 43°   Wind: 10mph
Humidity: 71%   Direction: 330°NNW
Pressure: 29.89"   Gusts: NA
Location:  44.44°N, 88.58°W
Report Text: KATW 201745Z 33009KT 10SM SCT021 OVC043 11/06 A2989
Loading
Personal Weather Stations






























Interactive Weather Map
Tropical Storm Tracking
New forecast layout! Learn more

10-Day Weather Forecast

Advertisements
Track Severe Weather on mobile